Time;durP1;ratioP1;P1;durP2;ratioP2;P2;SDS_P1;SDS_P2;PMS_P1;PMS_P2;Temp;Humidity;BMP_temperature;BMP_pressure;BME280_temperature;BME280_humidity;BME280_pressure;Samples;Min_cycle;Max_cycle;Signal;HPM_P1;HPM_P2
2024/02/06 00:02:00;;;;;;;185.90;105.20;;;;;;;;;;4971229;28;20085;-47
2024/02/06 00:04:26;;;;;;;194.27;106.18;;;;;;;;;;4970209;28;20035;-49
2024/02/06 00:06:52;;;;;;;189.10;105.53;;;;;;;;;;4969442;28;20110;-50
2024/02/06 00:09:20;;;;;;;189.50;102.40;;;;;;;;;;4954020;28;20035;-48
2024/02/06 00:11:46;;;;;;;191.85;105.35;;;;;;;;;;4953925;28;20023;-47
2024/02/06 00:14:12;;;;;;;201.80;113.07;;;;;;;;;;4952699;28;20032;-47
2024/02/06 00:16:38;;;;;;;187.27;103.07;;;;;;;;;;4956840;28;20042;-47
2024/02/06 00:19:05;;;;;;;197.63;110.43;;;;;;;;;;4969358;28;20269;-46
2024/02/06 00:21:32;;;;;;;192.07;106.13;;;;;;;;;;4971038;28;20035;-47
2024/02/06 00:24:00;;;;;;;171.40;95.70;;;;;;;;;;4971348;28;20384;-46
2024/02/06 00:26:27;;;;;;;174.43;98.32;;;;;;;;;;4971407;28;20081;-49
2024/02/06 00:28:53;;;;;;;186.65;101.63;;;;;;;;;;4954150;28;20063;-48
2024/02/06 00:31:19;;;;;;;192.07;101.97;;;;;;;;;;4971334;28;20589;-47
2024/02/06 00:33:45;;;;;;;186.70;103.72;;;;;;;;;;4969910;28;20035;-47
2024/02/06 00:36:12;;;;;;;214.95;114.72;;;;;;;;;;4971698;28;20027;-47
2024/02/06 00:38:38;;;;;;;200.80;107.30;;;;;;;;;;4963442;28;20031;-49
2024/02/06 00:41:04;;;;;;;208.55;114.50;;;;;;;;;;4972675;28;20503;-47
2024/02/06 00:43:30;;;;;;;214.27;111.83;;;;;;;;;;4955350;28;20059;-51
2024/02/06 00:45:57;;;;;;;210.35;110.63;;;;;;;;;;4964764;28;20062;-47
2024/02/06 00:48:23;;;;;;;207.75;106.05;;;;;;;;;;4959626;28;20081;-50
2024/02/06 00:50:49;;;;;;;214.40;113.72;;;;;;;;;;4961936;28;20114;-48
2024/02/06 00:53:16;;;;;;;187.50;103.10;;;;;;;;;;4953711;28;20111;-47
2024/02/06 00:55:42;;;;;;;192.68;104.20;;;;;;;;;;4963943;28;20030;-49
2024/02/06 00:58:08;;;;;;;210.13;110.22;;;;;;;;;;4960501;28;20125;-48
2024/02/06 01:00:35;;;;;;;193.90;103.65;;;;;;;;;;4967945;28;20473;-47
2024/02/06 01:03:02;;;;;;;210.68;111.25;;;;;;;;;;4953338;28;20014;-48
2024/02/06 01:05:28;;;;;;;215.57;112.90;;;;;;;;;;4955507;28;20110;-49
2024/02/06 01:07:54;;;;;;;205.98;107.30;;;;;;;;;;4984208;28;20118;-48
2024/02/06 01:10:20;;;;;;;212.77;112.40;;;;;;;;;;4963406;28;20444;-48
2024/02/06 01:12:46;;;;;;;184.35;98.28;;;;;;;;;;4972419;28;20031;-47
2024/02/06 01:15:13;;;;;;;189.82;101.68;;;;;;;;;;4964642;28;20057;-47
2024/02/06 01:17:39;;;;;;;183.97;100.73;;;;;;;;;;4962999;28;20037;-46
2024/02/06 01:20:06;;;;;;;193.45;101.85;;;;;;;;;;4969737;28;20023;-47
2024/02/06 01:22:33;;;;;;;;;;;;;;;;;;4967122;28;20503;-47
2024/02/06 01:24:59;;;;;;;191.07;99.57;;;;;;;;;;4960763;28;20008;-50
2024/02/06 01:27:25;;;;;;;192.23;101.57;;;;;;;;;;4965633;28;20053;-50
2024/02/06 01:29:51;;;;;;;182.13;96.30;;;;;;;;;;4971622;28;20040;-46
2024/02/06 01:32:17;;;;;;;196.90;100.90;;;;;;;;;;4956261;28;20050;-47
2024/02/06 01:34:44;;;;;;;176.60;100.25;;;;;;;;;;4960957;28;20038;-46
2024/02/06 01:37:10;;;;;;;174.80;95.72;;;;;;;;;;4970792;28;20031;-48
2024/02/06 01:39:36;;;;;;;160.48;88.47;;;;;;;;;;4962937;28;20460;-47
2024/02/06 01:42:03;;;;;;;179.00;97.57;;;;;;;;;;4975199;28;20026;-46
2024/02/06 01:44:29;;;;;;;182.18;99.28;;;;;;;;;;4967257;28;20494;-47
2024/02/06 01:46:56;;;;;;;191.53;102.93;;;;;;;;;;4962267;28;20027;-49
2024/02/06 01:49:22;;;;;;;193.98;100.32;;;;;;;;;;4973198;28;20471;-47
2024/02/06 01:51:49;;;;;;;206.02;97.43;;;;;;;;;;4971478;28;20042;-47
2024/02/06 01:54:16;;;;;;;185.00;97.27;;;;;;;;;;4969863;28;20023;-47
2024/02/06 01:56:44;;;;;;;175.02;92.18;;;;;;;;;;4956926;28;20781;-49
2024/02/06 01:59:10;;;;;;;168.85;89.22;;;;;;;;;;4960715;28;20475;-47
2024/02/06 02:01:37;;;;;;;177.13;94.97;;;;;;;;;;4963091;28;20031;-47
2024/02/06 02:04:04;;;;;;;159.63;92.50;;;;;;;;;;4962392;28;20027;-48
2024/02/06 02:06:30;;;;;;;150.15;89.25;;;;;;;;;;4961589;28;20023;-49
2024/02/06 02:08:57;;;;;;;162.38;91.03;;;;;;;;;;4957078;28;20404;-48
2024/02/06 02:11:23;;;;;;;164.50;90.97;;;;;;;;;;4974018;28;20122;-47
2024/02/06 02:13:52;;;;;;;152.90;84.40;;;;;;;;;;4974058;28;20027;-46
2024/02/06 02:16:21;;;;;;;125.00;75.78;;;;;;;;;;4973940;28;20036;-50
2024/02/06 02:18:51;;;;;;;120.47;74.03;;;;;;;;;;4974160;28;20103;-47
2024/02/06 02:21:17;;;;;;;166.48;75.57;;;;;;;;;;4972851;28;20061;-47
2024/02/06 02:23:44;;;;;;;372.23;90.28;;;;;;;;;;4955833;28;20378;-48
2024/02/06 02:26:12;;;;;;;245.30;83.53;;;;;;;;;;4954392;28;20030;-50
2024/02/06 02:28:38;;;;;;;;;;;;;;;;;;4956189;28;20392;-47
2024/02/06 02:31:05;;;;;;;287.65;75.03;;;;;;;;;;4955653;28;19914;-46
2024/02/06 02:33:32;;;;;;;252.80;76.22;;;;;;;;;;4955743;28;20031;-47
2024/02/06 02:35:58;;;;;;;199.17;68.30;;;;;;;;;;4955711;28;20093;-46
2024/02/06 02:38:24;;;;;;;303.03;81.60;;;;;;;;;;4955427;28;20031;-47
2024/02/06 02:40:51;;;;;;;84.20;55.90;;;;;;;;;;4955462;28;20038;-46
2024/02/06 02:43:18;;;;;;;189.13;68.45;;;;;;;;;;4955031;28;20031;-48
2024/02/06 02:45:44;;;;;;;;;;;;;;;;;;4955752;28;20027;-49
2024/02/06 02:48:10;;;;;;;625.35;111.90;;;;;;;;;;4955394;28;19942;-47
2024/02/06 02:50:36;;;;;;;281.92;85.80;;;;;;;;;;4955277;28;20126;-48
2024/02/06 02:53:02;;;;;;;407.23;86.13;;;;;;;;;;4955161;28;20058;-46
2024/02/06 02:55:28;;;;;;;580.23;107.23;;;;;;;;;;4955087;28;20038;-47
2024/02/06 02:57:55;;;;;;;487.48;95.78;;;;;;;;;;4958087;28;20504;-50
2024/02/06 03:00:21;;;;;;;397.70;86.22;;;;;;;;;;4974539;28;20035;-47
2024/02/06 03:02:47;;;;;;;395.35;91.35;;;;;;;;;;4974499;28;20031;-46
2024/02/06 03:05:13;;;;;;;116.65;67.38;;;;;;;;;;4972883;28;20026;-47
2024/02/06 03:07:40;;;;;;;141.60;72.47;;;;;;;;;;4956088;28;20027;-48
2024/02/06 03:10:06;;;;;;;92.43;62.60;;;;;;;;;;4985930;28;20094;-49
2024/02/06 03:12:32;;;;;;;98.10;59.47;;;;;;;;;;4954706;28;20031;-48
2024/02/06 03:15:00;;;;;;;98.05;65.65;;;;;;;;;;4988960;28;20690;-48
2024/02/06 03:17:26;;;;;;;;;;;;;;;;;;4955219;28;20086;-45
2024/02/06 03:19:52;;;;;;;116.40;70.70;;;;;;;;;;4958574;28;19910;-47
2024/02/06 03:22:20;;;;;;;162.13;74.80;;;;;;;;;;4973870;28;20039;-48
2024/02/06 03:24:47;;;;;;;115.57;71.07;;;;;;;;;;4955556;28;20027;-49
2024/02/06 03:27:13;;;;;;;181.30;76.73;;;;;;;;;;4973088;28;20484;-47
2024/02/06 03:29:42;;;;;;;253.73;82.53;;;;;;;;;;4973947;28;20062;-49
2024/02/06 03:32:08;;;;;;;153.93;80.43;;;;;;;;;;4967062;28;20035;-46
2024/02/06 03:34:34;;;;;;;407.67;103.30;;;;;;;;;;4954842;28;20467;-45
2024/02/06 03:37:00;;;;;;;325.77;85.47;;;;;;;;;;4954694;28;20278;-45
2024/02/06 03:39:27;;;;;;;283.00;76.75;;;;;;;;;;4954916;28;20031;-45
2024/02/06 03:41:53;;;;;;;172.93;75.77;;;;;;;;;;4955082;28;20506;-49
2024/02/06 03:44:19;;;;;;;118.88;67.93;;;;;;;;;;4954409;28;20073;-46
2024/02/06 03:46:46;;;;;;;119.13;71.20;;;;;;;;;;4985409;28;20551;-46
2024/02/06 03:49:12;;;;;;;116.30;72.38;;;;;;;;;;4985317;28;20031;-49
2024/02/06 03:51:38;;;;;;;129.20;76.73;;;;;;;;;;4954668;28;20425;-46
2024/02/06 03:54:04;;;;;;;134.20;77.47;;;;;;;;;;4969750;28;20113;-47
2024/02/06 03:56:30;;;;;;;147.57;81.23;;;;;;;;;;4970369;28;20030;-47
2024/02/06 03:58:57;;;;;;;122.97;74.57;;;;;;;;;;4955447;28;20039;-47
2024/02/06 04:01:23;;;;;;;123.57;74.63;;;;;;;;;;4955166;28;20027;-47
2024/02/06 04:03:49;;;;;;;121.78;74.15;;;;;;;;;;4957378;28;20102;-47
2024/02/06 04:06:16;;;;;;;123.53;74.93;;;;;;;;;;4973255;28;20100;-48
2024/02/06 04:08:45;;;;;;;134.32;78.93;;;;;;;;;;4973041;28;20391;-46
2024/02/06 04:11:12;;;;;;;141.85;83.50;;;;;;;;;;4952020;28;20403;-46
2024/02/06 04:13:38;;;;;;;;;;;;;;;;;;4963148;28;20083;-47
2024/02/06 04:16:04;;;;;;;117.70;71.30;;;;;;;;;;4958198;28;19911;-51
2024/02/06 04:18:31;;;;;;;127.97;79.95;;;;;;;;;;4955557;28;20045;-50
2024/02/06 04:20:57;;;;;;;126.68;75.25;;;;;;;;;;4973207;28;20055;-47
2024/02/06 04:23:23;;;;;;;123.63;74.70;;;;;;;;;;4973156;28;20034;-47
2024/02/06 04:25:49;;;;;;;139.60;83.40;;;;;;;;;;4964276;28;20039;-46
2024/02/06 04:28:15;;;;;;;133.40;79.13;;;;;;;;;;4973259;28;20035;-47
2024/02/06 04:33:09;;;;;;;156.20;90.35;;;;;;;;;;4970409;28;20050;-49
2024/02/06 04:35:36;;;;;;;166.55;92.55;;;;;;;;;;4973004;28;20077;-51
2024/02/06 04:38:02;;;;;;;132.20;81.30;;;;;;;;;;4971773;28;20034;-50
2024/02/06 04:40:29;;;;;;;139.13;82.97;;;;;;;;;;4962081;28;20535;-50
2024/02/06 04:42:55;;;;;;;159.17;93.27;;;;;;;;;;4953649;28;20435;-48
2024/02/06 04:45:22;;;;;;;184.55;102.43;;;;;;;;;;4956330;28;20305;-48
2024/02/06 04:47:48;;;;;;;184.00;101.37;;;;;;;;;;4953473;28;20062;-48
2024/02/06 04:50:15;;;;;;;169.88;97.60;;;;;;;;;;4959503;28;20147;-55
2024/02/06 04:52:41;;;;;;;151.70;91.20;;;;;;;;;;4953530;28;20057;-49
2024/02/06 04:55:09;;;;;;;161.20;91.93;;;;;;;;;;4958242;28;20034;-48
2024/02/06 04:57:35;;;;;;;220.70;114.07;;;;;;;;;;4963850;28;20031;-48
2024/02/06 05:00:03;;;;;;;209.63;111.40;;;;;;;;;;4953326;28;20031;-50
2024/02/06 05:02:30;;;;;;;210.55;107.32;;;;;;;;;;4952165;28;20038;-50
2024/02/06 05:04:56;;;;;;;189.82;103.20;;;;;;;;;;4951937;28;20110;-51
2024/02/06 05:07:22;;;;;;;167.60;96.60;;;;;;;;;;4955670;28;20050;-49
2024/02/06 05:09:48;;;;;;;171.32;91.75;;;;;;;;;;4956307;28;20040;-51
2024/02/06 05:12:14;;;;;;;172.20;94.75;;;;;;;;;;4956292;28;20488;-48
2024/02/06 05:14:40;;;;;;;158.35;91.07;;;;;;;;;;4956175;28;20035;-48
2024/02/06 05:17:07;;;;;;;150.00;88.78;;;;;;;;;;4955972;28;20035;-49
2024/02/06 05:19:33;;;;;;;143.93;85.22;;;;;;;;;;4955104;29;20039;-51
2024/02/06 05:22:00;;;;;;;156.75;91.50;;;;;;;;;;4957014;28;20035;-48
2024/02/06 05:24:27;;;;;;;165.43;91.90;;;;;;;;;;4956979;28;20548;-48
2024/02/06 05:26:53;;;;;;;149.45;85.65;;;;;;;;;;4956874;28;20097;-48
2024/02/06 05:29:21;;;;;;;154.07;87.95;;;;;;;;;;4956829;28;20373;-50
2024/02/06 05:31:47;;;;;;;143.73;84.75;;;;;;;;;;4956831;28;20031;-52
2024/02/06 05:34:14;;;;;;;140.02;83.93;;;;;;;;;;4956770;28;20122;-53
2024/02/06 05:36:40;;;;;;;141.15;81.47;;;;;;;;;;4956702;28;20037;-50
2024/02/06 05:39:07;;;;;;;157.40;95.70;;;;;;;;;;4956678;28;20053;-49
2024/02/06 05:41:33;;;;;;;149.95;85.65;;;;;;;;;;4956655;28;20031;-49
2024/02/06 05:43:59;;;;;;;155.38;91.32;;;;;;;;;;4955320;29;20039;-50
2024/02/06 05:46:26;;;;;;;149.68;86.90;;;;;;;;;;4956428;28;20555;-49
2024/02/06 05:48:52;;;;;;;164.87;94.93;;;;;;;;;;4955366;28;20039;-50
2024/02/06 05:51:19;;;;;;;172.88;100.03;;;;;;;;;;4956465;29;20065;-48
2024/02/06 05:53:45;;;;;;;162.63;91.18;;;;;;;;;;4956398;28;20035;-49
2024/02/06 05:56:11;;;;;;;168.90;95.57;;;;;;;;;;4956333;28;20078;-51
2024/02/06 05:58:41;;;;;;;179.35;98.60;;;;;;;;;;4956228;28;20035;-52
2024/02/06 06:01:07;;;;;;;165.38;95.65;;;;;;;;;;4956261;28;20481;-50
2024/02/06 06:03:34;;;;;;;172.98;97.57;;;;;;;;;;4956245;28;20023;-53
2024/02/06 06:06:00;;;;;;;173.45;100.75;;;;;;;;;;4956205;28;20035;-52
2024/02/06 06:08:26;;;;;;;181.35;103.40;;;;;;;;;;4955068;29;20039;-48
2024/02/06 06:10:52;;;;;;;168.50;95.47;;;;;;;;;;4955988;28;20039;-49
2024/02/06 06:13:18;;;;;;;184.63;98.97;;;;;;;;;;4956264;28;20038;-55
2024/02/06 06:15:46;;;;;;;161.10;91.43;;;;;;;;;;4954673;29;20503;-51
2024/02/06 06:18:12;;;;;;;162.85;92.70;;;;;;;;;;4953735;28;20043;-52
2024/02/06 06:20:38;;;;;;;161.40;93.33;;;;;;;;;;4955939;28;20035;-52
2024/02/06 06:23:05;;;;;;;167.10;94.00;;;;;;;;;;4954732;29;20505;-52
2024/02/06 06:25:31;;;;;;;147.20;88.82;;;;;;;;;;4954479;29;20027;-52
2024/02/06 06:27:57;;;;;;;136.37;79.13;;;;;;;;;;4954696;29;20476;-49
2024/02/06 06:30:23;;;;;;;140.32;79.93;;;;;;;;;;4955800;28;20035;-49
2024/02/06 06:32:50;;;;;;;140.43;81.65;;;;;;;;;;4955821;28;20047;-49
2024/02/06 06:35:16;;;;;;;147.13;83.10;;;;;;;;;;4954665;28;20027;-48
2024/02/06 06:37:42;;;;;;;145.80;89.25;;;;;;;;;;4954779;28;20066;-48
2024/02/06 06:40:08;;;;;;;148.40;83.78;;;;;;;;;;4955677;28;20089;-52
2024/02/06 06:42:35;;;;;;;144.55;83.28;;;;;;;;;;4955604;29;20038;-49
2024/02/06 06:45:01;;;;;;;138.82;81.50;;;;;;;;;;4955680;28;20480;-48
2024/02/06 06:47:29;;;;;;;132.45;82.20;;;;;;;;;;4955470;28;20162;-48
2024/02/06 06:49:56;;;;;;;130.95;79.65;;;;;;;;;;4954397;28;20122;-48
2024/02/06 06:52:22;;;;;;;129.35;79.18;;;;;;;;;;4954308;28;20045;-48
2024/02/06 06:54:48;;;;;;;127.73;77.93;;;;;;;;;;4955252;28;20050;-48
2024/02/06 06:57:14;;;;;;;119.22;76.60;;;;;;;;;;4955098;28;20126;-48
2024/02/06 06:59:40;;;;;;;121.22;77.68;;;;;;;;;;4955389;28;20068;-49
2024/02/06 07:02:07;;;;;;;116.77;72.07;;;;;;;;;;4955246;28;20019;-48
2024/02/06 07:04:35;;;;;;;115.70;72.47;;;;;;;;;;4955273;28;20035;-48
2024/02/06 07:07:01;;;;;;;114.05;72.72;;;;;;;;;;4954960;28;20027;-49
2024/02/06 07:09:28;;;;;;;113.00;74.35;;;;;;;;;;4955188;29;20427;-52
2024/02/06 07:11:54;;;;;;;112.72;73.45;;;;;;;;;;4955079;28;20031;-48
2024/02/06 07:14:21;;;;;;;110.93;69.25;;;;;;;;;;4953766;28;20067;-48
2024/02/06 07:16:47;;;;;;;98.63;65.67;;;;;;;;;;4953701;29;20042;-48
2024/02/06 07:19:13;;;;;;;109.70;68.70;;;;;;;;;;4954940;28;20034;-48
2024/02/06 07:21:40;;;;;;;107.95;68.78;;;;;;;;;;4954756;28;20023;-50
2024/02/06 07:24:06;;;;;;;102.35;65.97;;;;;;;;;;4954671;28;20027;-49
2024/02/06 07:26:32;;;;;;;105.33;66.13;;;;;;;;;;4954690;28;20023;-48
2024/02/06 07:28:58;;;;;;;105.40;67.78;;;;;;;;;;4954590;28;20031;-48
2024/02/06 07:31:24;;;;;;;97.57;66.68;;;;;;;;;;4954571;28;20097;-48
2024/02/06 07:33:51;;;;;;;107.82;72.65;;;;;;;;;;4953440;28;20039;-48
2024/02/06 07:36:18;;;;;;;116.28;72.88;;;;;;;;;;4953165;29;20515;-51
2024/02/06 07:38:44;;;;;;;115.80;74.93;;;;;;;;;;4954715;28;20050;-52
2024/02/06 07:41:10;;;;;;;118.43;74.40;;;;;;;;;;4953235;28;20028;-50
2024/02/06 07:43:36;;;;;;;120.87;74.50;;;;;;;;;;4954529;28;20109;-49
2024/02/06 07:46:04;;;;;;;121.50;75.63;;;;;;;;;;4954456;28;20039;-49
2024/02/06 07:48:30;;;;;;;114.60;74.07;;;;;;;;;;4953160;28;20035;-51
2024/02/06 07:50:56;;;;;;;118.53;75.73;;;;;;;;;;4954112;28;20027;-48
2024/02/06 07:53:23;;;;;;;120.67;79.57;;;;;;;;;;4953113;29;20042;-48
2024/02/06 07:55:49;;;;;;;116.15;77.57;;;;;;;;;;4954129;28;20401;-49
2024/02/06 07:58:15;;;;;;;119.40;77.33;;;;;;;;;;4954181;28;20031;-48
2024/02/06 08:00:43;;;;;;;126.80;76.50;;;;;;;;;;4954201;28;20093;-50
2024/02/06 08:03:10;;;;;;;118.75;77.30;;;;;;;;;;4954209;28;20058;-48
2024/02/06 08:05:36;;;;;;;125.57;79.85;;;;;;;;;;4953745;28;20054;-51
2024/02/06 08:08:04;;;;;;;132.85;84.78;;;;;;;;;;4954069;28;20389;-49
2024/02/06 08:10:30;;;;;;;;;;;;;;;;;;4937640;29;20027;-47
2024/02/06 08:12:56;;;;;;;137.20;81.15;;;;;;;;;;4954218;28;19911;-52
2024/02/06 08:15:23;;;;;;;139.80;87.50;;;;;;;;;;4952632;28;20097;-49
2024/02/06 08:17:50;;;;;;;138.63;85.40;;;;;;;;;;4952710;29;20035;-49
2024/02/06 08:20:19;;;;;;;143.43;86.72;;;;;;;;;;4952655;29;20091;-52
2024/02/06 08:22:47;;;;;;;126.97;82.60;;;;;;;;;;4952582;28;20027;-51
2024/02/06 08:25:15;;;;;;;127.88;83.25;;;;;;;;;;4953736;28;20034;-51
2024/02/06 08:27:41;;;;;;;130.32;84.28;;;;;;;;;;4953833;28;20403;-54
2024/02/06 08:30:09;;;;;;;121.00;81.07;;;;;;;;;;4953847;29;20526;-53
2024/02/06 08:32:35;;;;;;;128.68;81.15;;;;;;;;;;4953576;28;20054;-52
2024/02/06 08:35:02;;;;;;;123.80;79.47;;;;;;;;;;4952550;29;20043;-52
2024/02/06 08:37:28;;;;;;;127.03;80.75;;;;;;;;;;4952295;28;20041;-53
2024/02/06 08:39:54;;;;;;;122.63;78.13;;;;;;;;;;4953738;28;20066;-56
2024/02/06 08:42:20;;;;;;;120.90;79.90;;;;;;;;;;4953110;28;20103;-54
2024/02/06 08:44:46;;;;;;;119.55;79.20;;;;;;;;;;4953637;28;20031;-52
2024/02/06 08:47:13;;;;;;;124.50;82.30;;;;;;;;;;4953404;28;20479;-52
2024/02/06 08:49:39;;;;;;;126.75;79.68;;;;;;;;;;4952305;28;20028;-53
2024/02/06 08:52:05;;;;;;;126.28;82.28;;;;;;;;;;4953527;28;20020;-51
2024/02/06 08:54:32;;;;;;;138.07;88.03;;;;;;;;;;4952376;29;20114;-51
2024/02/06 08:56:58;;;;;;;128.23;84.45;;;;;;;;;;4952298;29;20031;-52
2024/02/06 08:59:24;;;;;;;150.47;90.57;;;;;;;;;;4952323;28;20492;-52
2024/02/06 09:01:51;;;;;;;144.93;92.57;;;;;;;;;;4952287;29;20035;-51
2024/02/06 09:04:17;;;;;;;141.37;89.90;;;;;;;;;;4953415;28;20350;-51
2024/02/06 09:06:43;;;;;;;165.45;104.63;;;;;;;;;;4952071;28;20571;-54
2024/02/06 09:09:09;;;;;;;147.57;94.43;;;;;;;;;;4952191;28;20082;-52
2024/02/06 09:11:35;;;;;;;158.48;97.78;;;;;;;;;;4953443;28;20086;-55
2024/02/06 09:14:01;;;;;;;151.40;93.25;;;;;;;;;;4952199;28;20031;-53
2024/02/06 09:16:28;;;;;;;139.63;94.13;;;;;;;;;;4953078;28;20036;-53
2024/02/06 09:18:54;;;;;;;134.30;91.60;;;;;;;;;;4953272;28;20484;-53
2024/02/06 09:21:21;;;;;;;151.45;100.30;;;;;;;;;;4953316;28;20433;-55
2024/02/06 09:23:47;;;;;;;153.40;98.57;;;;;;;;;;4953369;28;20031;-54
2024/02/06 09:26:15;;;;;;;153.10;97.23;;;;;;;;;;4951981;29;20054;-53
2024/02/06 09:28:44;;;;;;;154.88;99.93;;;;;;;;;;4951917;28;20772;-53
2024/02/06 09:31:14;;;;;;;148.93;97.28;;;;;;;;;;4953016;28;20102;-53
2024/02/06 09:33:40;;;;;;;148.25;94.50;;;;;;;;;;4953135;29;20058;-52
2024/02/06 09:36:07;;;;;;;137.38;90.57;;;;;;;;;;4953089;28;20036;-53
2024/02/06 09:38:33;;;;;;;136.48;89.60;;;;;;;;;;4951877;28;20042;-52
2024/02/06 09:41:00;;;;;;;136.75;91.82;;;;;;;;;;4953141;28;20034;-52
2024/02/06 09:43:26;;;;;;;156.00;95.53;;;;;;;;;;4953024;28;20030;-52
2024/02/06 09:45:52;;;;;;;154.30;99.70;;;;;;;;;;4952905;29;20030;-51
2024/02/06 09:48:19;;;;;;;158.80;100.27;;;;;;;;;;4951802;28;20038;-51
2024/02/06 09:50:45;;;;;;;158.13;103.23;;;;;;;;;;4952999;28;20481;-53
2024/02/06 09:53:12;;;;;;;149.30;98.97;;;;;;;;;;4952978;28;20039;-51
2024/02/06 09:55:39;;;;;;;148.75;100.82;;;;;;;;;;4956352;28;20119;-54
2024/02/06 09:58:07;;;;;;;159.10;104.47;;;;;;;;;;4956231;28;20042;-53
2024/02/06 10:00:34;;;;;;;151.95;101.88;;;;;;;;;;4955106;28;20035;-55
2024/02/06 10:03:00;;;;;;;;;;;;;;;;;;4955489;29;20035;-57
2024/02/06 10:05:27;;;;;;;151.02;99.18;;;;;;;;;;4954914;29;19910;-55
2024/02/06 10:07:54;;;;;;;156.60;102.53;;;;;;;;;;4956291;28;20035;-56
2024/02/06 10:10:20;;;;;;;151.85;101.85;;;;;;;;;;4956233;28;20073;-54
2024/02/06 10:12:47;;;;;;;153.25;103.70;;;;;;;;;;4956008;28;20550;-53
2024/02/06 10:15:23;;;;;;;168.07;111.83;;;;;;;;;;4955075;29;20376;-57
2024/02/06 10:17:49;;;;;;;165.68;110.43;;;;;;;;;;4954778;29;20443;-54
2024/02/06 10:20:16;;;;;;;177.77;113.40;;;;;;;;;;4956091;28;20028;-53
2024/02/06 10:22:42;;;;;;;171.02;109.00;;;;;;;;;;4955985;28;20491;-53
2024/02/06 10:25:09;;;;;;;179.13;116.25;;;;;;;;;;4955719;28;20023;-53
2024/02/06 10:27:35;;;;;;;163.77;108.63;;;;;;;;;;4955880;28;20027;-56
2024/02/06 10:30:02;;;;;;;160.73;106.50;;;;;;;;;;4954649;29;20044;-52
2024/02/06 10:32:31;;;;;;;174.82;109.50;;;;;;;;;;4989024;23;20053;-48
2024/02/06 10:35:04;;;;;;;174.43;111.13;;;;;;;;;;4975003;28;20542;-48
2024/02/06 10:37:34;;;;;;;174.20;115.40;;;;;;;;;;4974910;28;20031;-48
2024/02/06 10:40:05;;;;;;;170.10;112.90;;;;;;;;;;4975083;28;20096;-49
2024/02/06 10:42:31;;;;;;;169.32;113.65;;;;;;;;;;4973575;28;20023;-50
2024/02/06 10:44:57;;;;;;;170.50;111.90;;;;;;;;;;4974906;28;20109;-49
2024/02/06 10:47:25;;;;;;;171.07;111.03;;;;;;;;;;4974842;28;20038;-49
2024/02/06 10:49:51;;;;;;;;;;;;;;;;;;4975319;28;20115;-51
2024/02/06 10:52:19;;;;;;;169.73;110.32;;;;;;;;;;4974597;28;19906;-48
2024/02/06 10:54:45;;;;;;;168.07;111.55;;;;;;;;;;4974951;28;20035;-49
2024/02/06 10:57:13;;;;;;;163.30;109.15;;;;;;;;;;4974670;28;20030;-48
2024/02/06 10:59:39;;;;;;;161.20;108.03;;;;;;;;;;4974700;28;20034;-49
2024/02/06 11:02:17;;;;;;;170.95;111.20;;;;;;;;;;4973268;28;20023;-48
2024/02/06 11:04:43;;;;;;;157.82;106.57;;;;;;;;;;4972792;28;20035;-48
2024/02/06 11:07:10;;;;;;;174.07;114.27;;;;;;;;;;4973132;28;20057;-48
2024/02/06 11:09:37;;;;;;;;;;;;;;;;;;4973672;28;20071;-48
2024/02/06 11:12:04;;;;;;;157.38;106.25;;;;;;;;;;4989386;28;19910;-50
2024/02/06 11:14:31;;;;;;;158.88;108.00;;;;;;;;;;4973927;28;20487;-50
2024/02/06 11:16:58;;;;;;;160.60;106.82;;;;;;;;;;4972202;28;20027;-48
2024/02/06 11:19:26;;;;;;;;;;;;;;;;;;4974474;28;20061;-49
2024/02/06 11:21:57;;;;;;;163.70;106.25;;;;;;;;;;4969940;28;19961;-52
2024/02/06 11:24:24;;;;;;;156.93;106.15;;;;;;;;;;4966145;28;20034;-49
2024/02/06 11:26:51;;;;;;;155.05;105.75;;;;;;;;;;4958734;28;20023;-50
2024/02/06 11:29:17;;;;;;;163.73;107.57;;;;;;;;;;4969752;28;20031;-49
2024/02/06 11:31:44;;;;;;;148.18;107.63;;;;;;;;;;4963317;28;20038;-48
2024/02/06 11:34:14;;;;;;;146.80;103.20;;;;;;;;;;4965328;28;20169;-50
2024/02/06 11:36:41;;;;;;;153.07;105.15;;;;;;;;;;4965367;28;20063;-50
2024/02/06 11:39:12;;;;;;;150.25;102.47;;;;;;;;;;4966572;28;20053;-52
2024/02/06 11:41:39;;;;;;;157.80;104.30;;;;;;;;;;4965743;28;20161;-52
2024/02/06 11:44:11;;;;;;;157.30;106.47;;;;;;;;;;4959575;28;20046;-50
2024/02/06 11:46:47;;;;;;;151.32;104.07;;;;;;;;;;4972259;28;20037;-49
2024/02/06 11:49:14;;;;;;;153.57;103.93;;;;;;;;;;4972199;28;20561;-48
2024/02/06 11:51:40;;;;;;;159.43;104.75;;;;;;;;;;4951600;28;20175;-52
2024/02/06 11:54:13;;;;;;;151.57;102.82;;;;;;;;;;4971888;28;20069;-49
2024/02/06 11:56:40;;;;;;;148.48;102.80;;;;;;;;;;4970457;28;20065;-49
2024/02/06 11:59:06;;;;;;;;;;;;;;;;;;4971160;28;20031;-49
2024/02/06 12:01:33;;;;;;;148.25;101.80;;;;;;;;;;4972017;28;19910;-49
2024/02/06 12:04:02;;;;;;;148.80;104.07;;;;;;;;;;4970804;28;20070;-51
2024/02/06 12:06:29;;;;;;;141.77;94.32;;;;;;;;;;4971036;28;20265;-49
2024/02/06 12:09:08;;;;;;;137.05;92.35;;;;;;;;;;4971731;28;20041;-50
2024/02/06 12:11:42;;;;;;;140.95;96.85;;;;;;;;;;4970232;28;20033;-49
2024/02/06 12:14:11;;;;;;;144.00;100.57;;;;;;;;;;4971767;28;20034;-53
2024/02/06 12:16:37;;;;;;;146.57;98.90;;;;;;;;;;4969528;28;20053;-53
2024/02/06 12:19:03;;;;;;;153.18;102.45;;;;;;;;;;4971267;28;20104;-52
2024/02/06 12:21:29;;;;;;;135.00;91.80;;;;;;;;;;4968735;28;20062;-52
2024/02/06 12:24:03;;;;;;;146.15;94.72;;;;;;;;;;4969041;28;20035;-48
2024/02/06 12:26:29;;;;;;;140.00;93.70;;;;;;;;;;4971121;28;20110;-53
2024/02/06 12:29:02;;;;;;;133.32;93.78;;;;;;;;;;4969361;28;20183;-52
2024/02/06 12:31:40;;;;;;;131.07;91.70;;;;;;;;;;4963877;28;20122;-50
2024/02/06 12:34:06;;;;;;;136.80;95.47;;;;;;;;;;4971225;28;20034;-49
2024/02/06 12:36:37;;;;;;;135.48;92.95;;;;;;;;;;4970188;28;20030;-53
2024/02/06 12:39:12;;;;;;;131.43;94.30;;;;;;;;;;4951120;29;20154;-51
2024/02/06 12:41:39;;;;;;;132.80;93.97;;;;;;;;;;4967686;28;20030;-50
2024/02/06 12:44:05;;;;;;;122.80;86.53;;;;;;;;;;4970480;28;20031;-50
2024/02/06 12:46:31;;;;;;;109.03;77.93;;;;;;;;;;4971531;28;20637;-50
2024/02/06 12:48:59;;;;;;;116.03;79.63;;;;;;;;;;4971797;28;20031;-49
2024/02/06 12:51:25;;;;;;;102.05;71.45;;;;;;;;;;4971552;28;20118;-50
2024/02/06 12:53:51;;;;;;;114.53;81.00;;;;;;;;;;4971599;28;20023;-49
2024/02/06 12:56:17;;;;;;;114.63;76.23;;;;;;;;;;4971381;28;20034;-50
2024/02/06 12:58:45;;;;;;;101.67;71.60;;;;;;;;;;4971337;28;20491;-53
2024/02/06 13:01:11;;;;;;;100.32;69.10;;;;;;;;;;4969853;28;20027;-51
2024/02/06 13:03:38;;;;;;;87.47;63.23;;;;;;;;;;4971516;28;20062;-52
2024/02/06 13:06:04;;;;;;;92.25;62.88;;;;;;;;;;4969876;28;20078;-50
2024/02/06 13:08:31;;;;;;;97.65;68.95;;;;;;;;;;4969979;28;20491;-49
2024/02/06 13:11:01;;;;;;;107.10;68.63;;;;;;;;;;4971373;28;20035;-50
2024/02/06 13:13:27;;;;;;;96.03;65.38;;;;;;;;;;4971190;28;20022;-52
2024/02/06 13:15:57;;;;;;;85.03;62.10;;;;;;;;;;4970297;28;20027;-50
2024/02/06 13:18:23;;;;;;;91.43;65.05;;;;;;;;;;4969809;28;20077;-50
2024/02/06 13:20:56;;;;;;;84.10;63.45;;;;;;;;;;4958366;28;20106;-50
2024/02/06 13:23:23;;;;;;;91.75;65.70;;;;;;;;;;4969814;28;20451;-52
2024/02/06 13:25:49;;;;;;;88.85;62.10;;;;;;;;;;4963296;28;20235;-52
2024/02/06 13:28:17;;;;;;;84.07;54.40;;;;;;;;;;4973713;28;20031;-50
2024/02/06 13:30:43;;;;;;;83.30;56.30;;;;;;;;;;4971224;28;20399;-50
2024/02/06 13:33:09;;;;;;;79.00;54.77;;;;;;;;;;4974497;28;20039;-49
2024/02/06 13:35:35;;;;;;;84.28;60.83;;;;;;;;;;4976241;28;20077;-52
2024/02/06 13:38:03;;;;;;;80.37;58.07;;;;;;;;;;4974701;28;20062;-49
2024/02/06 13:40:30;;;;;;;87.57;58.63;;;;;;;;;;4976103;28;20069;-49
2024/02/06 13:42:58;;;;;;;84.85;59.75;;;;;;;;;;4974679;28;20062;-50
2024/02/06 13:45:24;;;;;;;88.03;59.03;;;;;;;;;;4975841;28;20191;-53
2024/02/06 13:47:50;;;;;;;75.30;54.90;;;;;;;;;;4974760;28;20042;-49
2024/02/06 13:50:18;;;;;;;86.17;56.17;;;;;;;;;;4974678;28;20270;-51
2024/02/06 13:52:44;;;;;;;73.65;50.20;;;;;;;;;;4975816;28;20530;-50
2024/02/06 13:55:11;;;;;;;77.50;54.70;;;;;;;;;;4974576;28;20066;-52
2024/02/06 13:57:37;;;;;;;81.55;56.88;;;;;;;;;;4974348;28;20035;-51
2024/02/06 14:00:04;;;;;;;80.93;55.63;;;;;;;;;;4975707;28;20031;-52
2024/02/06 14:02:31;;;;;;;86.78;57.50;;;;;;;;;;4975573;28;20407;-52
2024/02/06 14:04:58;;;;;;;86.75;60.28;;;;;;;;;;4975740;28;20019;-50
2024/02/06 14:07:24;;;;;;;79.15;56.70;;;;;;;;;;4975580;28;20031;-50